CYXJ

Fort St John Airport

Fort St.John, British Columbia, Canada
TAF CYXJ 241238Z 2413/2501 32008KT P6SM BKN080 FM241800 26012KT P6SM SCT050 RMK NXT FCST BY 241900Z
Issued Valid From Valid To
Sep-24 @ 12:38 UTC
(58 minutes ago)
Sep-24 @ 13:00 UTC
(36 minutes ago)
Sep-25 @ 01:00 UTC
(in 11 hours)
Sep-24 @ 13:00 to Sep-24 @ 18:00
TAF CYXJ 241238Z 2413/2501 32008KT P6SM BKN080
Wind Visibility Clouds
320° at 8 knots Greater than 6 miles
  • Broken at 8,000' AGL
From Sep-24 @ 18:00 to Sep-25 @ 01:00
FM241800 26012KT P6SM SCT050 RMK NXT FCST BY 241900Z
Wind Visibility Clouds
260° at 12 knots Greater than 6 miles
  • Scattered at 5,000' AGL
TAF CYXJ 241238Z 2413/2501 32008KT P6SM BKN080 FM241800 26012KT P6SM SCT050 RMK NXT FCST BY 241900Z
Issued Sep-24 @ 12:38 UTC
(58 minutes ago)
Valid From Sep-24 @ 13:00 UTC
(36 minutes ago)
Valid To Sep-25 @ 01:00 UTC
(in 11 hours)
Sep-24 @ 13:00 - Sep-24 @ 18:00
Wind Visibility
320° at 8 knots Greater than 6 miles
Clouds
  • Broken at 8,000' AGL
From Sep-24 @ 18:00 - Sep-25 @ 01:00
Wind Visibility
260° at 12 knots Greater than 6 miles
Clouds
  • Scattered at 5,000' AGL